Aviation Digital Data Service (ADDS)

Output produced by METARs form (0324 UTC 21 September 2017)
found at http://www.aviationweather.gov/adds/metars/
 
TAF TNCA 202200Z 2100/2124 01006KT 9999 FEW018 
     TEMPO VRB05KT